createdAt,value
2018-01-17T00:01:51.739Z,10.23
2018-01-17T00:04:20.961Z,9.03
2018-01-17T00:06:51.055Z,8.77
2018-01-17T00:09:21.038Z,7.60
2018-01-17T00:11:50.315Z,15.33
2018-01-17T00:14:19.518Z,12.33
2018-01-17T00:16:48.732Z,12.10
2018-01-17T00:19:17.914Z,12.00
2018-01-17T00:21:47.300Z,11.97
2018-01-17T00:24:16.440Z,10.83
2018-01-17T00:26:45.749Z,10.87
2018-01-17T00:29:14.974Z,7.70
2018-01-17T00:31:44.198Z,11.23
2018-01-17T00:34:13.442Z,14.83
2018-01-17T00:36:42.644Z,8.73
2018-01-17T00:39:11.877Z,11.60
2018-01-17T00:41:41.943Z,9.53
2018-01-17T00:44:11.141Z,8.40
2018-01-17T00:46:40.339Z,9.33
2018-01-17T00:49:09.542Z,6.50
2018-01-17T00:51:38.763Z,10.07
2018-01-17T00:54:08.021Z,6.17
2018-01-17T00:56:37.219Z,7.10
2018-01-17T00:59:06.435Z,8.40
2018-01-17T01:01:35.653Z,6.73
2018-01-17T01:04:06.378Z,11.97
2018-01-17T01:06:35.582Z,7.93
2018-01-17T01:09:04.950Z,12.90
2018-01-17T01:11:34.144Z,15.27
2018-01-17T01:14:03.347Z,7.03
2018-01-17T01:16:32.559Z,13.63
2018-01-17T01:19:01.977Z,5.40
2018-01-17T01:21:31.184Z,11.50
2018-01-17T01:24:00.645Z,7.20
2018-01-17T01:26:29.978Z,11.93
2018-01-17T01:28:59.219Z,8.63
2018-01-17T01:31:28.426Z,7.60
2018-01-17T01:33:57.692Z,8.07
2018-01-17T01:36:26.944Z,10.37
2018-01-17T01:38:56.226Z,12.37
2018-01-17T01:41:25.574Z,8.23
2018-01-17T01:43:54.929Z,14.30
2018-01-17T01:46:24.156Z,6.50
2018-01-17T01:49:01.965Z,7.63
2018-01-17T01:51:31.205Z,10.07
2018-01-17T01:54:00.399Z,8.07
2018-01-17T01:56:29.624Z,6.70
2018-01-17T01:58:58.843Z,5.83
2018-01-17T02:01:28.043Z,8.37
2018-01-17T02:03:57.218Z,8.53
2018-01-17T02:06:27.354Z,5.00
2018-01-17T02:08:56.553Z,7.90
2018-01-17T02:11:25.797Z,8.30
2018-01-17T02:13:55.750Z,6.70
2018-01-17T02:16:24.967Z,5.00
2018-01-17T02:18:54.246Z,8.30
2018-01-17T02:21:23.532Z,8.77
2018-01-17T02:23:52.746Z,6.27
2018-01-17T02:26:21.951Z,6.73
2018-01-17T02:28:51.237Z,5.80
2018-01-17T02:31:21.158Z,5.93
2018-01-17T02:33:50.451Z,3.47
2018-01-17T02:36:20.510Z,2.57
2018-01-17T02:38:49.732Z,1.83
2018-01-17T02:41:19.705Z,1.20
2018-01-17T02:43:48.927Z,1.00
2018-01-17T02:46:18.107Z,1.70
2018-01-17T02:48:48.045Z,0.90
2018-01-17T02:51:17.320Z,0.90
2018-01-17T02:53:46.529Z,1.60
2018-01-17T02:56:17.195Z,1.30
2018-01-17T02:58:47.151Z,1.37
2018-01-17T03:01:16.355Z,1.00
2018-01-17T03:03:45.582Z,2.70
2018-01-17T03:06:15.562Z,1.10
2018-01-17T03:08:44.768Z,1.63
2018-01-17T03:11:13.941Z,1.70
2018-01-17T03:13:43.220Z,1.10
2018-01-17T03:16:12.403Z,1.03
2018-01-17T03:18:41.602Z,1.27
2018-01-17T03:21:10.815Z,1.37
2018-01-17T03:23:39.994Z,3.90
2018-01-17T03:26:09.198Z,1.23
2018-01-17T03:28:38.393Z,1.43
2018-01-17T03:31:07.635Z,1.77
2018-01-17T03:33:36.862Z,2.10
2018-01-17T03:36:06.041Z,4.33
2018-01-17T03:38:35.266Z,1.97
2018-01-17T03:41:05.278Z,4.13
2018-01-17T03:43:35.333Z,4.10
2018-01-17T03:46:04.534Z,2.10
2018-01-17T03:48:33.798Z,5.73
2018-01-17T03:51:03.750Z,2.20
2018-01-17T03:53:32.958Z,8.00
2018-01-17T03:56:02.151Z,4.37
2018-01-17T03:58:31.337Z,3.83
2018-01-17T04:01:00.522Z,11.33
2018-01-17T04:03:29.753Z,3.93
2018-01-17T04:05:58.949Z,7.43
2018-01-17T04:08:28.152Z,4.93
2018-01-17T04:10:58.131Z,5.17
2018-01-17T04:13:28.197Z,18.90
2018-01-17T04:15:57.391Z,7.03
2018-01-17T04:18:26.626Z,8.17
2018-01-17T04:20:55.894Z,8.83
2018-01-17T04:23:25.114Z,7.87
2018-01-17T04:25:55.178Z,8.00
2018-01-17T04:28:24.355Z,7.87
2018-01-17T04:30:53.570Z,9.30
2018-01-17T04:33:22.807Z,7.67
2018-01-17T04:35:52.047Z,7.57
2018-01-17T04:38:21.290Z,16.33
2018-01-17T04:40:50.506Z,7.40
2018-01-17T04:43:19.726Z,8.07
2018-01-17T04:45:49.691Z,12.47
2018-01-17T04:48:18.874Z,14.40
2018-01-17T04:50:48.243Z,9.67
2018-01-17T04:53:18.195Z,10.23
2018-01-17T04:55:47.575Z,9.07
2018-01-17T04:58:16.767Z,7.70
2018-01-17T05:00:46.010Z,7.73
2018-01-17T05:03:15.242Z,8.50
2018-01-17T05:05:45.208Z,6.73
2018-01-17T05:08:14.409Z,9.83
2018-01-17T05:10:43.591Z,9.13
2018-01-17T05:13:12.805Z,9.33
2018-01-17T05:15:42.046Z,7.77
2018-01-17T05:18:12.042Z,7.13
2018-01-17T05:20:41.249Z,6.13
2018-01-17T05:23:11.225Z,11.80
2018-01-17T05:25:40.389Z,7.70
2018-01-17T05:28:09.635Z,10.97
2018-01-17T05:30:38.773Z,7.97
2018-01-17T05:33:08.061Z,11.17
2018-01-17T05:35:38.034Z,8.37
2018-01-17T05:38:07.237Z,12.80
2018-01-17T05:40:36.434Z,6.97
2018-01-17T05:43:05.637Z,7.53
2018-01-17T05:45:34.850Z,8.77
2018-01-17T05:48:04.058Z,10.20
2018-01-17T05:50:34.048Z,9.00
2018-01-17T05:53:03.233Z,10.50
2018-01-17T05:55:32.449Z,9.93
2018-01-17T05:58:01.653Z,11.77
2018-01-17T06:00:30.892Z,8.30
2018-01-17T06:03:00.090Z,9.93
2018-01-17T06:05:29.298Z,10.23
2018-01-17T06:07:58.478Z,9.13
2018-01-17T06:10:27.733Z,11.70
2018-01-17T06:12:56.913Z,10.70
2018-01-17T06:15:26.136Z,10.87
2018-01-17T06:17:55.445Z,12.97
2018-01-17T06:20:25.409Z,12.13
2018-01-17T06:22:54.625Z,12.13
2018-01-17T06:25:23.840Z,13.10
2018-01-17T06:27:53.062Z,11.20
2018-01-17T06:30:23.023Z,12.83
2018-01-17T06:32:52.254Z,13.27
2018-01-17T06:35:21.477Z,13.73
2018-01-17T06:37:51.471Z,17.90
2018-01-17T06:40:20.691Z,13.63
2018-01-17T06:42:50.109Z,18.43
2018-01-17T06:45:19.332Z,14.60
2018-01-17T06:47:48.570Z,13.07
2018-01-17T06:50:17.845Z,16.70
2018-01-17T06:52:47.075Z,17.03
2018-01-17T06:55:17.048Z,12.33
2018-01-17T06:57:46.382Z,15.40
2018-01-17T07:00:17.099Z,11.50
2018-01-17T07:02:46.322Z,17.87
2018-01-17T07:05:15.518Z,13.50
2018-01-17T07:07:44.747Z,12.20
2018-01-17T07:10:13.954Z,13.37
2018-01-17T07:12:43.152Z,16.07
2018-01-17T07:15:12.401Z,12.60
2018-01-17T07:17:42.370Z,15.10
2018-01-17T07:20:11.577Z,13.07
2018-01-17T07:22:40.801Z,18.20
2018-01-17T07:25:11.693Z,15.07
2018-01-17T07:27:41.618Z,14.90
2018-01-17T07:30:10.841Z,17.90
2018-01-17T07:32:40.047Z,12.03
2018-01-17T07:35:09.262Z,13.07
2018-01-17T07:37:39.277Z,11.57
2018-01-17T07:40:09.274Z,13.70
2018-01-17T07:42:40.019Z,13.30
2018-01-17T07:45:10.024Z,11.63
2018-01-17T07:47:40.830Z,10.10
2018-01-17T07:50:10.105Z,10.43
2018-01-17T07:52:39.343Z,13.30
2018-01-17T07:55:08.555Z,11.23
2018-01-17T07:57:37.779Z,11.90
2018-01-17T08:00:07.761Z,11.40
2018-01-17T08:02:37.854Z,17.57
2018-01-17T08:05:07.071Z,8.33
2018-01-17T08:07:36.307Z,10.37
2018-01-17T08:10:06.342Z,10.50
2018-01-17T08:12:35.720Z,17.87
2018-01-17T08:15:05.876Z,8.27
2018-01-17T08:17:35.076Z,12.47
2018-01-17T08:20:04.318Z,12.13
2018-01-17T08:22:33.501Z,13.90
2018-01-17T08:25:02.727Z,8.40
2018-01-17T08:27:32.764Z,12.97
2018-01-17T08:30:02.169Z,12.00
2018-01-17T08:32:32.146Z,12.07
2018-01-17T08:35:02.135Z,12.47
2018-01-17T08:37:31.423Z,16.00
2018-01-17T08:40:00.623Z,12.73
2018-01-17T08:42:29.967Z,14.30
2018-01-17T08:44:59.203Z,15.43
2018-01-17T08:47:28.434Z,15.80
2018-01-17T08:49:57.650Z,13.53
2018-01-17T08:52:26.857Z,13.20
2018-01-17T08:54:56.195Z,16.33
2018-01-17T08:57:25.412Z,15.50
2018-01-17T08:59:54.615Z,14.50
2018-01-17T09:02:23.929Z,14.90
2018-01-17T09:04:53.138Z,16.97
2018-01-17T09:07:22.359Z,15.80
2018-01-17T09:09:52.359Z,16.70
2018-01-17T09:12:21.682Z,14.83
2018-01-17T09:14:50.906Z,16.27
2018-01-17T09:17:20.417Z,17.10
2018-01-17T09:19:50.463Z,18.53
2018-01-17T09:22:19.761Z,15.67
2018-01-17T09:24:49.021Z,19.03
2018-01-17T09:27:18.241Z,17.83
2018-01-17T09:29:47.450Z,15.40
2018-01-17T09:32:16.722Z,21.07
2018-01-17T09:34:45.970Z,14.63
2018-01-17T09:37:15.172Z,18.90
2018-01-17T09:39:45.161Z,15.53
2018-01-17T09:42:14.391Z,20.27
2018-01-17T09:44:43.608Z,18.43
2018-01-17T09:47:12.830Z,20.70
2018-01-17T09:49:42.105Z,19.90
2018-01-17T09:52:11.387Z,17.83
2018-01-17T09:54:41.397Z,14.53
2018-01-17T09:57:12.117Z,12.47
2018-01-17T09:59:41.511Z,13.17
2018-01-17T10:02:10.684Z,12.30
2018-01-17T10:04:39.902Z,13.27
2018-01-17T10:07:09.098Z,12.17
2018-01-17T10:09:38.303Z,11.20
2018-01-17T10:12:07.518Z,11.13
2018-01-17T10:14:36.734Z,11.03
2018-01-17T10:17:06.752Z,12.80
2018-01-17T10:19:36.739Z,15.23
2018-01-17T10:22:06.140Z,14.57
2018-01-17T10:24:35.378Z,14.00
2018-01-17T10:27:04.584Z,10.30
2018-01-17T10:29:33.788Z,14.43
2018-01-17T10:32:02.981Z,14.73
2018-01-17T10:34:32.275Z,17.90
2018-01-17T10:50:01.566Z,13.60
2018-01-17T10:52:30.807Z,18.20
2018-01-17T10:55:00.054Z,17.50
2018-01-17T10:57:30.324Z,9.70
2018-01-17T10:59:59.566Z,13.77
2018-01-17T11:02:28.802Z,15.03
2018-01-17T11:04:58.063Z,11.17
2018-01-17T11:07:27.296Z,11.67
2018-01-17T11:09:56.560Z,12.57
2018-01-17T11:12:25.949Z,13.40
2018-01-17T11:14:56.014Z,8.97
2018-01-17T11:17:25.236Z,10.27
2018-01-17T11:19:55.261Z,10.70
2018-01-17T11:22:25.278Z,8.80
2018-01-17T11:24:54.554Z,15.50
2018-01-17T11:27:23.795Z,14.20
2018-01-17T11:29:53.071Z,10.30
2018-01-17T11:32:22.315Z,16.20
2018-01-17T11:34:51.608Z,9.00
2018-01-17T11:37:20.821Z,11.33
2018-01-17T11:39:50.016Z,10.20
2018-01-17T11:42:19.276Z,10.70
2018-01-17T11:44:49.246Z,8.47
2018-01-17T11:47:18.492Z,9.47
2018-01-17T11:49:48.486Z,12.97
2018-01-17T11:52:17.751Z,8.33
2018-01-17T11:54:46.950Z,12.33
2018-01-17T11:57:16.248Z,9.97
2018-01-17T11:59:45.450Z,8.57
2018-01-17T12:02:14.703Z,7.97
2018-01-17T12:04:43.936Z,12.60
2018-01-17T12:07:13.376Z,11.40
2018-01-17T12:09:42.673Z,12.10
2018-01-17T12:12:11.839Z,15.13
2018-01-17T12:14:41.271Z,10.50
2018-01-17T12:17:10.530Z,17.07
2018-01-17T12:19:39.725Z,13.53
2018-01-17T12:22:08.964Z,14.83
2018-01-17T12:24:38.228Z,11.50
2018-01-17T12:27:07.464Z,16.33
2018-01-17T12:29:36.746Z,13.77
2018-01-17T12:32:06.012Z,15.97
2018-01-17T12:37:11.195Z,14.83
2018-01-17T12:39:40.484Z,12.43
2018-01-17T12:42:09.831Z,18.23
2018-01-17T12:44:39.804Z,12.30
2018-01-17T12:47:08.993Z,15.90
2018-01-17T12:49:38.405Z,18.57
2018-01-17T12:52:07.674Z,13.83
2018-01-17T12:54:36.908Z,12.90
2018-01-17T12:57:06.145Z,10.90
2018-01-17T12:59:36.122Z,13.43
2018-01-17T13:02:05.353Z,15.03
2018-01-17T13:04:35.355Z,11.20
2018-01-17T13:07:04.574Z,15.43
2018-01-17T13:09:33.850Z,15.83
2018-01-17T13:12:03.838Z,14.60
2018-01-17T13:14:33.130Z,16.60
2018-01-17T13:17:02.374Z,11.00
2018-01-17T13:19:32.400Z,12.73
2018-01-17T13:22:02.416Z,16.13
2018-01-17T13:24:32.515Z,11.60
2018-01-17T13:27:01.744Z,14.40
2018-01-17T13:29:31.755Z,12.20
2018-01-17T13:32:01.027Z,9.00
2018-01-17T13:34:31.027Z,11.13
2018-01-17T13:37:00.507Z,11.50
2018-01-17T13:39:29.711Z,13.93
2018-01-17T13:41:58.974Z,11.83
2018-01-17T13:44:28.166Z,16.10
2018-01-17T13:46:58.483Z,10.07
2018-01-17T13:49:28.576Z,13.00
2018-01-17T13:51:57.825Z,12.13
2018-01-17T13:54:27.073Z,12.30
2018-01-17T13:56:56.286Z,14.87
2018-01-17T13:59:25.527Z,14.03
2018-01-17T14:01:54.782Z,13.37
2018-01-17T14:04:23.986Z,11.80
2018-01-17T14:06:54.022Z,27.33
2018-01-17T14:09:23.243Z,18.30
2018-01-17T14:11:52.454Z,16.80
2018-01-17T14:14:21.754Z,18.93
2018-01-17T14:16:50.956Z,12.87
2018-01-17T14:19:20.254Z,15.93
2018-01-17T14:21:50.456Z,19.63
2018-01-17T14:24:19.890Z,20.13
2018-01-17T14:26:49.099Z,13.13
2018-01-17T14:29:18.344Z,16.77
2018-01-17T14:31:47.559Z,12.80
2018-01-17T14:34:16.771Z,17.43
2018-01-17T14:36:46.483Z,22.67
2018-01-17T14:39:16.471Z,15.30
2018-01-17T14:41:45.975Z,11.87
2018-01-17T14:44:15.222Z,15.33
2018-01-17T14:46:44.473Z,12.47
2018-01-17T14:49:13.658Z,14.20
2018-01-17T14:51:43.073Z,10.53
2018-01-17T14:54:12.331Z,15.63
2018-01-17T14:56:42.363Z,12.50
2018-01-17T14:59:11.570Z,8.97
2018-01-17T15:01:40.840Z,9.90
2018-01-17T15:04:11.574Z,11.00
2018-01-17T15:06:41.840Z,13.70
2018-01-17T15:09:11.227Z,19.10
2018-01-17T15:11:40.550Z,14.97
2018-01-17T15:14:10.106Z,13.17
2018-01-17T15:16:39.350Z,15.53
2018-01-17T15:19:08.552Z,12.63
2018-01-17T15:21:37.741Z,7.50
2018-01-17T15:24:06.966Z,7.33
2018-01-17T15:26:36.245Z,12.73
2018-01-17T15:29:05.571Z,15.10
2018-01-17T15:31:34.815Z,8.93
2018-01-17T15:34:04.834Z,13.23
2018-01-17T15:36:34.799Z,7.83
2018-01-17T15:39:04.038Z,6.53
2018-01-17T15:41:33.258Z,4.60
2018-01-17T15:44:02.505Z,7.13
2018-01-17T15:46:31.723Z,10.23
2018-01-17T15:49:01.734Z,6.27
2018-01-17T15:51:31.722Z,9.40
2018-01-17T15:54:01.020Z,6.83
2018-01-17T15:56:30.447Z,7.70
2018-01-17T15:58:59.685Z,8.27
2018-01-17T16:01:30.859Z,6.87
2018-01-17T16:04:00.090Z,8.80
2018-01-17T16:06:29.309Z,11.57
2018-01-17T16:08:58.534Z,9.03
2018-01-17T16:11:27.815Z,9.43
2018-01-17T16:13:57.009Z,12.70
2018-01-17T16:16:26.290Z,8.13
2018-01-17T16:18:56.339Z,14.40
2018-01-17T16:21:25.591Z,14.57
2018-01-17T16:23:55.602Z,9.77
2018-01-17T16:26:24.828Z,16.70
2018-01-17T16:28:55.074Z,14.07
2018-01-17T16:31:25.030Z,12.83
2018-01-17T16:33:55.034Z,18.60
2018-01-17T16:36:24.337Z,12.13
2018-01-17T16:38:53.544Z,10.70
2018-01-17T16:41:22.745Z,10.00
2018-01-17T16:43:52.100Z,17.33
2018-01-17T16:46:21.353Z,14.23
2018-01-17T16:48:50.681Z,9.83
2018-01-17T16:51:20.647Z,15.57
2018-01-17T16:53:49.861Z,19.00
2018-01-17T16:56:19.854Z,10.60
2018-01-17T16:58:50.705Z,12.17
2018-01-17T17:01:19.926Z,11.87
2018-01-17T17:03:49.913Z,13.93
2018-01-17T17:06:19.133Z,16.30
2018-01-17T17:08:48.577Z,18.43
2018-01-17T17:11:17.933Z,10.80
2018-01-17T17:13:47.174Z,13.03
2018-01-17T17:16:16.391Z,18.17
2018-01-17T17:18:45.676Z,9.00
2018-01-17T17:21:14.843Z,9.63
2018-01-17T17:23:44.067Z,16.60
2018-01-17T17:26:13.291Z,9.60
2018-01-17T17:28:42.542Z,15.00
2018-01-17T17:31:11.792Z,13.50
2018-01-17T17:33:41.936Z,10.20
2018-01-17T17:36:11.933Z,12.70
2018-01-17T17:38:41.184Z,9.03
2018-01-17T17:41:10.438Z,11.80
2018-01-17T17:43:41.832Z,11.00
2018-01-17T17:46:11.836Z,10.57
2018-01-17T17:48:41.083Z,12.43
2018-01-17T17:51:10.410Z,18.23
2018-01-17T17:53:39.612Z,10.77
2018-01-17T17:56:08.839Z,12.17
2018-01-17T17:58:38.051Z,14.77
2018-01-17T18:01:07.262Z,18.77
2018-01-17T18:03:36.499Z,9.07
2018-01-17T18:06:07.728Z,13.00
2018-01-17T18:08:36.959Z,14.33
2018-01-17T18:11:06.996Z,16.70
2018-01-17T18:13:37.672Z,19.80
2018-01-17T18:16:06.891Z,24.53
2018-01-17T18:18:36.118Z,10.13
2018-01-17T18:21:05.334Z,16.57
2018-01-17T18:23:34.544Z,12.43
2018-01-17T18:26:03.909Z,16.10
2018-01-17T18:28:33.231Z,11.17
2018-01-17T18:31:02.517Z,10.27
2018-01-17T18:33:31.753Z,12.77
2018-01-17T18:36:01.149Z,13.40
2018-01-17T18:38:30.343Z,9.53
2018-01-17T18:40:59.579Z,11.57
2018-01-17T18:43:28.830Z,12.53
2018-01-17T18:45:58.046Z,14.23
2018-01-17T18:48:27.257Z,15.87
2018-01-17T18:50:56.508Z,15.07
2018-01-17T18:53:25.863Z,10.63
2018-01-17T18:55:55.161Z,14.50
2018-01-17T18:58:25.367Z,11.60
2018-01-17T19:00:54.798Z,10.90
2018-01-17T19:03:24.061Z,17.90
2018-01-17T19:05:53.294Z,13.47
2018-01-17T19:08:22.789Z,14.20
2018-01-17T19:10:53.563Z,11.33
2018-01-17T19:13:22.757Z,15.03
2018-01-17T19:15:51.962Z,14.93
2018-01-17T19:18:21.185Z,19.40
2018-01-17T19:20:50.408Z,16.37
2018-01-17T19:23:20.420Z,12.43
2018-01-17T19:25:49.620Z,14.87
2018-01-17T19:28:18.870Z,16.57
2018-01-17T19:30:48.081Z,20.90
2018-01-17T19:33:17.409Z,13.03
2018-01-17T19:35:47.465Z,13.50
2018-01-17T19:38:16.663Z,10.50
2018-01-17T19:40:46.648Z,15.13
2018-01-17T19:43:16.735Z,13.23
2018-01-17T19:45:46.048Z,12.53
2018-01-17T19:48:15.364Z,10.23
2018-01-17T19:50:46.182Z,12.30
2018-01-17T19:53:15.422Z,14.60
2018-01-17T19:55:45.439Z,16.13
2018-01-17T19:58:15.437Z,12.73
2018-01-17T20:00:45.453Z,11.50
2018-01-17T20:03:14.660Z,17.10
2018-01-17T20:05:44.087Z,16.87
2018-01-17T20:08:13.327Z,16.30
2018-01-17T20:10:43.344Z,10.27
2018-01-17T20:13:12.568Z,29.40
2018-01-17T20:15:42.617Z,8.63
2018-01-17T20:18:12.552Z,13.60
2018-01-17T20:20:41.836Z,12.40
2018-01-17T20:23:11.042Z,10.50
2018-01-17T20:25:40.267Z,7.77
2018-01-17T20:28:09.487Z,9.43
2018-01-17T20:30:38.786Z,15.03
2018-01-17T20:33:08.994Z,13.87
2018-01-17T20:35:38.289Z,17.43
2018-01-17T20:38:07.504Z,8.33
2018-01-17T20:40:36.727Z,10.30
2018-01-17T20:43:05.923Z,9.67
2018-01-17T20:45:35.973Z,12.30
2018-01-17T20:48:05.204Z,13.23
2018-01-17T20:50:34.449Z,17.40
2018-01-17T20:53:04.434Z,8.40
2018-01-17T20:55:34.731Z,13.00
2018-01-17T20:58:03.969Z,11.60
2018-01-17T21:00:34.769Z,12.40
2018-01-17T21:03:04.007Z,12.67
2018-01-17T21:05:34.000Z,14.83
2018-01-17T21:08:03.195Z,24.60
2018-01-17T21:10:33.190Z,20.13
2018-01-17T21:13:03.930Z,17.00
2018-01-17T21:15:33.216Z,9.93
2018-01-17T21:18:02.452Z,9.50
2018-01-17T21:20:32.445Z,15.90
2018-01-17T21:23:02.733Z,16.00
2018-01-17T21:25:32.030Z,17.37
2018-01-17T21:28:01.271Z,17.70
2018-01-17T21:30:30.671Z,12.67
2018-01-17T21:32:59.906Z,14.43
2018-01-17T21:35:29.155Z,9.70
2018-01-17T21:37:58.368Z,11.90
2018-01-17T21:40:27.603Z,17.03
2018-01-17T21:43:03.240Z,18.67
2018-01-17T21:45:38.673Z,14.03
2018-01-17T21:48:08.843Z,13.87
2018-01-17T21:50:38.058Z,17.87
2018-01-17T21:53:07.359Z,13.53
2018-01-17T21:55:36.703Z,14.00
2018-01-17T21:58:06.040Z,12.40
2018-01-17T22:00:35.261Z,9.57
2018-01-17T22:03:04.488Z,11.23
2018-01-17T22:05:34.473Z,19.73
2018-01-17T22:08:03.803Z,20.03
2018-01-17T22:10:33.773Z,16.93
2018-01-17T22:13:03.001Z,19.57
2018-01-17T22:15:33.067Z,17.50
2018-01-17T22:18:02.312Z,13.03
2018-01-17T22:20:31.568Z,18.87
2018-01-17T22:23:00.921Z,13.63
2018-01-17T22:25:30.374Z,14.00
2018-01-17T22:27:59.612Z,15.03
2018-01-17T22:30:28.834Z,14.67
2018-01-17T22:32:58.842Z,21.23
2018-01-17T22:35:28.385Z,11.47
2018-01-17T22:37:57.604Z,23.97
2018-01-17T22:40:26.863Z,20.90
2018-01-17T22:42:56.858Z,18.87
2018-01-17T22:45:26.912Z,11.67
2018-01-17T22:47:56.193Z,15.03
2018-01-17T22:50:26.158Z,11.03
2018-01-17T22:52:55.355Z,20.13
2018-01-17T22:55:24.574Z,8.70
2018-01-17T22:57:53.759Z,15.20
2018-01-17T23:00:23.016Z,18.30
2018-01-17T23:02:52.291Z,14.90
2018-01-17T23:05:21.735Z,14.47
2018-01-17T23:07:51.010Z,14.73
2018-01-17T23:10:21.055Z,16.50
2018-01-17T23:12:50.355Z,14.47
2018-01-17T23:15:19.575Z,15.63
2018-01-17T23:17:48.794Z,17.53
2018-01-17T23:20:18.773Z,15.57
2018-01-17T23:22:48.011Z,17.70
2018-01-17T23:25:17.966Z,14.83
2018-01-17T23:27:47.301Z,13.50
2018-01-17T23:30:16.548Z,17.40
2018-01-17T23:32:45.796Z,11.03
2018-01-17T23:35:15.160Z,20.63
2018-01-17T23:37:44.641Z,28.33
2018-01-17T23:40:13.899Z,13.53
2018-01-17T23:42:43.274Z,15.40
2018-01-17T23:45:13.261Z,16.40
2018-01-17T23:47:43.217Z,13.60
2018-01-17T23:50:12.444Z,14.63
2018-01-17T23:52:42.758Z,10.37
2018-01-17T23:55:12.030Z,13.40
2018-01-17T23:57:41.258Z,12.57
